Time;durP1;ratioP1;P1;durP2;ratioP2;P2;SDS_P1;SDS_P2;PMS_P1;PMS_P2;Temp;Humidity;BMP_temperature;BMP_pressure;BME280_temperature;BME280_humidity;BME280_pressure;Samples;Min_cycle;Max_cycle;Signal;HPM_P1;HPM_P2
2022/10/14 00:00:36;;;;;;;21.17;14.83;;;11.60;99.90;12.50;97091.00;;;;5074379;28;20192;-70
2022/10/14 00:03:25;;;;;;;19.53;16.47;;;11.50;99.90;12.40;97090.00;;;;5071698;28;20203;-71
2022/10/14 00:06:16;;;;;;;23.85;16.15;;;11.40;99.90;12.70;97091.00;;;;5085474;28;20215;-71
2022/10/14 00:09:09;;;;;;;17.83;15.17;;;11.40;99.90;12.60;97088.00;;;;5079208;28;20281;-70
2022/10/14 00:11:58;;;;;;;21.57;15.30;;;11.30;99.90;12.60;97090.00;;;;5071253;28;20261;-70
2022/10/14 00:14:47;;;;;;;18.67;14.47;;;11.30;99.90;12.50;97080.00;;;;5078124;28;20308;-70
2022/10/14 00:17:37;;;;;;;22.43;15.90;;;11.30;99.90;12.40;97084.00;;;;5087058;28;20203;-71
2022/10/14 00:20:28;;;;;;;19.03;16.13;;;11.20;99.90;12.50;97081.00;;;;5090198;28;20694;-71
2022/10/14 00:23:17;;;;;;;19.97;14.77;;;11.20;99.90;12.20;97074.00;;;;5082027;28;20204;-70
2022/10/14 00:26:07;;;;;;;23.50;16.80;;;11.10;99.90;12.20;97080.00;;;;5078598;28;20220;-71
2022/10/14 00:28:57;;;;;;;26.83;21.10;;;10.80;99.90;12.10;97076.00;;;;5088572;28;20532;-70
2022/10/14 00:31:47;;;;;;;25.63;17.30;;;11.00;99.90;12.30;97070.00;;;;5098397;28;20206;-70
2022/10/14 00:34:36;;;;;;;27.93;17.57;;;11.00;99.90;12.00;97069.00;;;;5090986;28;20188;-70
2022/10/14 00:37:25;;;;;;;24.03;17.77;;;11.00;99.90;11.70;97063.00;;;;5081341;28;20243;-70
2022/10/14 00:40:13;;;;;;;;;;;10.90;99.90;11.50;97071.00;;;;5087255;28;20047;-70
2022/10/14 00:43:03;;;;;;;31.50;21.95;;;10.60;99.90;11.80;97073.00;;;;5081298;28;20393;-70
2022/10/14 00:45:52;;;;;;;24.53;18.13;;;10.70;99.90;12.10;97068.00;;;;5073115;28;20306;-69
2022/10/14 00:48:41;;;;;;;22.87;15.83;;;10.70;99.90;12.10;97062.00;;;;5083168;28;20308;-70
2022/10/14 00:51:30;;;;;;;22.80;18.00;;;10.70;99.90;11.70;97060.00;;;;5086831;28;20332;-70
2022/10/14 00:54:23;;;;;;;19.50;16.47;;;10.60;99.90;11.20;97056.00;;;;5087282;28;20666;-70
2022/10/14 00:57:12;;;;;;;23.47;16.00;;;10.50;99.90;10.80;97063.00;;;;5082872;28;20683;-70
2022/10/14 01:00:08;;;;;;;27.47;16.90;;;10.30;99.90;11.00;97061.00;;;;5075623;28;20235;-70
2022/10/14 01:02:57;;;;;;;24.93;17.97;;;10.10;99.90;11.40;97065.00;;;;5069439;28;20274;-70
2022/10/14 01:05:54;;;;;;;27.50;16.77;;;10.10;99.90;11.50;97054.00;;;;5072880;28;20227;-70
2022/10/14 01:08:49;;;;;;;24.87;19.03;;;10.10;99.90;11.50;97051.00;;;;5071301;28;20224;-70
2022/10/14 01:11:44;;;;;;;26.23;16.63;;;10.20;99.90;11.20;97050.00;;;;5078399;28;20207;-70
2022/10/14 01:14:41;;;;;;;22.57;16.67;;;10.10;99.90;11.10;97043.00;;;;5091666;28;20273;-70
2022/10/14 01:17:47;;;;;;;22.20;17.53;;;10.10;99.90;11.20;97038.00;;;;5093122;28;20682;-70
2022/10/14 01:20:58;;;;;;;24.10;17.07;;;10.00;99.90;11.20;97031.00;;;;5085956;28;20194;-71
2022/10/14 01:24:18;;;;;;;25.30;18.97;;;10.00;99.90;11.30;97021.00;;;;5085574;28;20653;-70
2022/10/14 01:27:45;;;;;;;33.77;17.90;;;10.10;99.90;11.50;97022.00;;;;5076133;28;20256;-70
2022/10/14 01:30:41;;;;;;;23.67;17.60;;;10.10;99.90;11.00;97013.00;;;;5082544;28;20249;-70
2022/10/14 01:33:36;;;;;;;26.33;19.87;;;10.10;99.90;10.80;97017.00;;;;5074713;28;20231;-70
2022/10/14 01:36:30;;;;;;;27.23;20.20;;;10.00;99.90;10.90;97018.00;;;;5085049;28;20206;-70
2022/10/14 01:39:25;;;;;;;28.73;19.87;;;10.00;99.90;11.10;97018.00;;;;5083489;28;20222;-70
2022/10/14 01:42:20;;;;;;;31.20;20.67;;;9.90;99.90;11.20;97017.00;;;;5093997;28;20256;-70
2022/10/14 01:45:17;;;;;;;30.77;20.27;;;10.00;99.90;11.20;97029.00;;;;5079318;28;20196;-69
2022/10/14 01:48:08;;;;;;;32.07;20.77;;;10.00;99.90;10.80;97018.00;;;;5074085;28;20637;-70
2022/10/14 01:51:01;;;;;;;30.90;19.87;;;9.90;99.90;10.80;97010.00;;;;5085457;28;20200;-71
2022/10/14 01:53:56;;;;;;;25.40;18.93;;;9.80;99.90;11.10;97015.00;;;;5079788;28;20341;-71
2022/10/14 01:56:46;;;;;;;25.83;19.07;;;9.80;99.90;11.20;97013.00;;;;5081215;28;20252;-71
2022/10/14 01:59:36;;;;;;;25.10;18.73;;;9.80;99.90;11.30;97008.00;;;;5079553;28;20623;-71
2022/10/14 02:02:25;;;;;;;23.47;18.27;;;9.90;99.90;11.20;97005.00;;;;5082602;28;20227;-71
2022/10/14 02:05:21;;;;;;;27.43;18.30;;;9.90;99.90;11.00;97003.00;;;;5085727;28;20272;-70
2022/10/14 02:08:15;;;;;;;28.97;17.67;;;9.90;99.90;10.80;96993.00;;;;5078336;28;20219;-71
2022/10/14 02:11:11;;;;;;;26.83;17.63;;;9.80;99.90;10.60;96997.00;;;;5086741;28;20207;-71
2022/10/14 02:14:18;;;;;;;26.70;18.23;;;9.80;99.90;10.50;96992.00;;;;5089825;28;20274;-71
2022/10/14 02:17:13;;;;;;;25.90;19.17;;;9.70;99.90;10.50;96985.00;;;;5091479;28;20207;-71
2022/10/14 02:20:08;;;;;;;26.40;19.70;;;9.60;99.90;10.40;96976.00;;;;5085080;28;20203;-70
2022/10/14 02:23:05;;;;;;;30.80;19.23;;;9.60;99.90;10.10;96988.00;;;;5077762;28;20207;-70
2022/10/14 02:25:55;;;;;;;25.37;18.47;;;9.40;99.90;10.10;96984.00;;;;5082915;28;20199;-71
2022/10/14 02:28:45;;;;;;;22.13;17.00;;;9.40;99.90;9.60;96982.00;;;;5069528;28;20301;-71
2022/10/14 02:31:37;;;;;;;27.10;18.37;;;9.10;99.90;9.70;96989.00;;;;5071513;28;20207;-71
2022/10/14 02:34:27;;;;;;;29.10;19.03;;;9.00;99.90;10.10;97002.00;;;;5081405;28;20268;-70
2022/10/14 02:37:17;;;;;;;30.70;20.70;;;9.00;99.90;9.90;96998.00;;;;5086419;28;20204;-70
2022/10/14 02:40:13;;;;;;;27.80;19.67;;;9.00;99.90;10.30;96989.00;;;;5086562;28;20290;-70
2022/10/14 02:43:02;;;;;;;28.20;19.07;;;9.00;99.90;10.40;96986.00;;;;5079326;28;20211;-71
2022/10/14 02:45:58;;;;;;;27.67;19.57;;;9.10;99.90;10.50;96984.00;;;;5071496;28;20208;-70
2022/10/14 02:48:46;;;;;;;25.53;18.67;;;9.10;99.90;10.40;96978.00;;;;5086444;28;20222;-71
2022/10/14 02:51:35;;;;;;;25.13;18.03;;;9.20;99.90;10.50;96988.00;;;;5098828;28;20269;-71
2022/10/14 02:54:24;;;;;;;30.87;18.90;;;9.20;99.90;10.50;96981.00;;;;5079929;28;20258;-70
2022/10/14 02:57:14;;;;;;;21.23;15.77;;;9.20;99.90;10.40;96982.00;;;;5088244;28;20227;-71
2022/10/14 03:00:03;;;;;;;24.80;18.20;;;9.20;99.90;10.30;96987.00;;;;5083358;28;20199;-70
2022/10/14 03:02:52;;;;;;;23.33;19.30;;;9.20;99.90;10.10;96987.00;;;;5081084;28;20264;-71
2022/10/14 03:05:43;;;;;;;29.07;18.03;;;9.20;99.90;10.00;96985.00;;;;5070334;28;20231;-71
2022/10/14 03:08:31;;;;;;;27.67;18.43;;;9.10;99.90;10.10;96989.00;;;;5069163;28;20788;-71
2022/10/14 03:11:20;;;;;;;30.10;19.43;;;9.10;99.90;10.00;96977.00;;;;5069569;28;20612;-71
2022/10/14 03:14:11;;;;;;;28.37;19.50;;;9.10;99.90;9.90;96980.00;;;;5071147;28;20203;-71
2022/10/14 03:16:59;;;;;;;26.37;18.87;;;9.00;99.90;9.70;96993.00;;;;5070617;28;20208;-71
2022/10/14 03:19:48;;;;;;;25.27;18.83;;;8.90;99.90;9.40;96990.00;;;;5074223;28;20254;-71
2022/10/14 03:22:37;;;;;;;28.20;20.33;;;8.80;99.90;9.50;96980.00;;;;5094223;28;20256;-71
2022/10/14 03:25:26;;;;;;;31.40;19.93;;;8.70;99.90;9.70;96977.00;;;;5088184;28;20199;-71
2022/10/14 03:28:15;;;;;;;31.10;19.67;;;8.70;99.90;9.80;96970.00;;;;5074963;28;20232;-70
2022/10/14 03:31:05;;;;;;;30.67;19.50;;;8.80;99.90;9.80;96980.00;;;;5077750;28;20258;-71
2022/10/14 03:33:54;;;;;;;23.75;17.10;;;8.70;99.90;9.50;96992.00;;;;5076487;28;20219;-72
2022/10/14 03:36:43;;;;;;;31.97;18.40;;;8.70;99.90;9.30;96996.00;;;;5089870;28;20452;-71
2022/10/14 03:39:32;;;;;;;27.80;18.33;;;8.60;99.90;9.40;96985.00;;;;5069606;28;20273;-71
2022/10/14 03:42:20;;;;;;;37.10;25.25;;;8.70;99.90;9.60;96991.00;;;;5070607;28;21150;-71
2022/10/14 03:45:10;;;;;;;35.47;21.90;;;8.60;99.90;9.80;97004.00;;;;5069576;28;20584;-71
2022/10/14 03:48:00;;;;;;;27.53;21.23;;;8.70;99.90;10.10;96999.00;;;;5080675;28;20266;-70
2022/10/14 03:50:49;;;;;;;36.00;20.20;;;8.80;99.90;10.30;96991.00;;;;5080564;28;20203;-70
2022/10/14 03:53:38;;;;;;;43.03;19.77;;;8.90;99.90;10.40;96997.00;;;;5078946;28;20252;-69
2022/10/14 03:56:26;;;;;;;34.93;19.80;;;9.00;99.90;10.50;96990.00;;;;5085321;28;20195;-70
2022/10/14 03:59:15;;;;;;;28.17;20.17;;;9.10;99.90;10.70;96989.00;;;;5075507;28;20216;-70
2022/10/14 04:02:04;;;;;;;31.23;20.93;;;9.20;99.90;10.70;96991.00;;;;5096469;28;20199;-69
2022/10/14 04:04:54;;;;;;;29.90;18.43;;;9.30;99.90;10.80;96986.00;;;;5080832;28;20214;-70
2022/10/14 04:07:46;;;;;;;26.60;17.77;;;9.40;99.90;10.60;96980.00;;;;5086418;28;20215;-70
2022/10/14 04:10:35;;;;;;;29.20;19.27;;;9.40;99.90;10.20;96985.00;;;;5075771;28;20204;-70
2022/10/14 04:13:24;;;;;;;27.57;19.57;;;9.30;99.90;9.90;96977.00;;;;5081752;28;20242;-70
2022/10/14 04:16:13;;;;;;;22.00;17.03;;;9.30;99.90;10.20;96976.00;;;;5078057;28;20622;-70
2022/10/14 04:19:01;;;;;;;23.50;18.30;;;9.20;99.90;10.10;96972.00;;;;5083624;28;20295;-70
2022/10/14 04:21:52;;;;;;;20.87;16.20;;;9.20;99.90;9.70;96974.00;;;;5080187;28;20663;-70
2022/10/14 04:24:40;;;;;;;24.27;17.67;;;9.10;99.90;9.80;96976.00;;;;5085937;28;20248;-69
2022/10/14 04:27:29;;;;;;;28.83;19.03;;;9.00;99.90;9.80;96967.00;;;;5076429;28;20231;-70
2022/10/14 04:30:18;;;;;;;28.40;19.83;;;8.90;99.90;9.80;96973.00;;;;5071747;28;20231;-70
2022/10/14 04:33:07;;;;;;;29.67;17.40;;;8.90;99.90;9.90;96970.00;;;;5086248;28;20249;-70
2022/10/14 04:35:58;;;;;;;24.87;18.47;;;8.90;99.90;9.80;96973.00;;;;5070648;28;20193;-70
2022/10/14 04:38:48;;;;;;;23.00;16.20;;;8.90;99.90;9.50;96974.00;;;;5071404;28;20281;-69
2022/10/14 04:41:37;;;;;;;25.37;18.63;;;8.80;99.90;9.60;96964.00;;;;5072930;28;20207;-70
2022/10/14 04:44:26;;;;;;;31.83;18.87;;;8.80;99.90;9.60;96969.00;;;;5071114;28;20225;-70
2022/10/14 04:47:14;;;;;;;27.67;17.33;;;8.80;99.90;9.80;96969.00;;;;5082751;28;20720;-69
2022/10/14 04:50:03;;;;;;;25.80;17.77;;;8.80;99.90;10.00;96965.00;;;;5098110;28;20206;-69
2022/10/14 04:52:52;;;;;;;26.07;17.27;;;8.80;99.90;9.80;96960.00;;;;5083931;28;20619;-70
2022/10/14 04:55:43;;;;;;;23.63;16.20;;;8.80;99.90;9.70;96964.00;;;;5086562;28;20300;-69
2022/10/14 04:58:32;;;;;;;26.57;17.67;;;8.70;99.90;9.60;96964.00;;;;5085734;28;20690;-70
2022/10/14 05:01:21;;;;;;;22.15;16.20;;;7.60;99.90;9.30;96966.00;;;;5097429;28;20261;-69
2022/10/14 05:04:09;;;;;;;23.60;16.53;;;8.60;99.90;9.30;96963.00;;;;5083028;28;20111;-70
2022/10/14 05:06:58;;;;;;;24.73;17.87;;;8.50;99.90;9.50;96967.00;;;;5101527;28;20203;-70
2022/10/14 05:09:47;;;;;;;27.37;18.60;;;8.50;99.90;9.80;96965.00;;;;5077438;28;20215;-70
2022/10/14 05:12:39;;;;;;;29.30;19.70;;;8.60;99.90;9.90;96963.00;;;;5088809;28;20684;-69
2022/10/14 05:15:27;;;;;;;24.93;18.37;;;8.60;99.90;10.00;96955.00;;;;5081940;28;20613;-69
2022/10/14 05:18:16;;;;;;;26.33;17.60;;;8.70;99.90;10.00;96956.00;;;;5081762;28;20219;-70
2022/10/14 05:21:05;;;;;;;29.87;18.93;;;8.70;99.90;10.00;96951.00;;;;5080765;28;20200;-70
2022/10/14 05:23:54;;;;;;;27.37;18.20;;;8.80;99.90;9.70;96944.00;;;;5083203;28;20239;-69
2022/10/14 05:26:43;;;;;;;24.93;17.20;;;8.80;99.90;9.50;96957.00;;;;5082677;28;20207;-70
2022/10/14 05:29:33;;;;;;;22.70;16.00;;;8.70;99.90;9.50;96943.00;;;;5078644;28;20231;-70
2022/10/14 05:32:22;;;;;;;27.40;17.70;;;8.60;99.90;9.20;96956.00;;;;5084853;28;20226;-70
2022/10/14 05:35:11;;;;;;;30.97;17.23;;;8.60;99.90;9.20;96944.00;;;;5101366;28;20205;-71
2022/10/14 05:37:59;;;;;;;28.73;18.37;;;8.40;99.90;9.20;96945.00;;;;5080715;28;20299;-69
2022/10/14 05:40:55;;;;;;;27.73;16.70;;;8.40;99.90;9.40;96948.00;;;;5079441;28;20215;-69
2022/10/14 05:43:44;;;;;;;20.53;16.03;;;8.40;99.90;9.30;96953.00;;;;5080356;28;20721;-69
2022/10/14 05:46:34;;;;;;;27.13;17.90;;;8.40;99.90;9.60;96949.00;;;;5078521;28;20203;-70
2022/10/14 05:49:23;;;;;;;23.47;16.73;;;8.40;99.90;9.50;96935.00;;;;5078846;28;20756;-70
2022/10/14 05:52:12;;;;;;;26.33;17.27;;;8.40;99.90;9.00;96939.00;;;;5075958;28;20216;-69
2022/10/14 05:55:01;;;;;;;29.33;17.43;;;8.30;99.90;9.20;96931.00;;;;5081134;28;20200;-69
2022/10/14 05:57:50;;;;;;;20.03;16.37;;;8.30;99.90;9.40;96943.00;;;;5083752;28;20218;-70
2022/10/14 06:00:38;;;;;;;26.53;18.80;;;8.40;99.90;9.20;96942.00;;;;5080473;28;20211;-70
2022/10/14 06:03:29;;;;;;;29.57;15.03;;;8.30;99.90;9.10;96944.00;;;;5082076;28;20709;-72
2022/10/14 06:06:18;;;;;;;25.47;17.83;;;8.30;99.90;8.90;96936.00;;;;5080310;28;20262;-69
2022/10/14 06:09:07;;;;;;;23.33;14.47;;;8.30;99.90;8.80;96945.00;;;;5079245;28;20255;-71
2022/10/14 06:11:58;;;;;;;26.27;16.93;;;8.20;99.90;9.00;96945.00;;;;5073722;28;20670;-70
2022/10/14 06:14:47;;;;;;;26.67;16.33;;;8.20;99.90;9.10;96942.00;;;;5080197;28;20236;-72
2022/10/14 06:17:36;;;;;;;25.87;16.33;;;8.20;99.90;9.10;96939.00;;;;5077788;28;20223;-69
2022/10/14 06:20:26;;;;;;;28.53;18.30;;;8.30;99.90;9.40;96948.00;;;;5077641;28;20208;-70
2022/10/14 06:23:14;;;;;;;26.63;16.90;;;8.40;99.90;9.30;96952.00;;;;5081022;28;20984;-71
2022/10/14 06:26:06;;;;;;;26.83;18.30;;;8.50;99.90;9.40;96955.00;;;;5083607;28;20203;-69
2022/10/14 06:28:55;;;;;;;27.00;17.83;;;8.50;99.90;9.80;96948.00;;;;5085436;28;20256;-68
2022/10/14 06:31:44;;;;;;;25.73;18.27;;;8.60;99.90;10.00;96955.00;;;;5079279;28;20685;-71
2022/10/14 06:34:33;;;;;;;23.30;16.90;;;8.80;99.90;10.30;96959.00;;;;5091396;28;21042;-70
2022/10/14 06:37:23;;;;;;;34.03;23.10;;;8.90;99.90;10.00;96957.00;;;;5072739;28;20204;-71
2022/10/14 06:40:12;;;;;;;26.40;16.80;;;8.90;99.90;9.90;96957.00;;;;5069264;28;20203;-70
2022/10/14 06:43:00;;;;;;;28.57;17.63;;;9.00;99.90;10.20;96959.00;;;;5071211;28;20208;-70
2022/10/14 06:45:50;;;;;;;23.00;16.80;;;9.00;99.90;10.20;96954.00;;;;5072501;28;20245;-70
2022/10/14 06:48:38;;;;;;;29.60;19.10;;;9.10;99.90;10.40;96953.00;;;;5078091;28;20313;-70
2022/10/14 06:51:27;;;;;;;40.37;26.20;;;9.20;99.90;10.60;96959.00;;;;5084977;28;20199;-70
2022/10/14 06:54:17;;;;;;;81.63;49.50;;;9.30;99.90;10.50;96959.00;;;;5077241;28;20211;-71
2022/10/14 06:57:06;;;;;;;58.70;37.17;;;9.40;99.90;10.70;96965.00;;;;5069251;28;20196;-70
2022/10/14 06:59:54;;;;;;;22.97;16.63;;;9.50;99.90;10.80;96960.00;;;;5070338;28;20227;-74
2022/10/14 07:02:44;;;;;;;20.77;15.47;;;9.60;99.90;10.70;96966.00;;;;5080490;28;20223;-70
2022/10/14 07:05:32;;;;;;;18.90;13.30;;;9.60;99.90;10.60;96964.00;;;;5074711;28;20243;-72
2022/10/14 07:08:21;;;;;;;18.60;16.30;;;9.70;99.90;10.80;96970.00;;;;5076728;28;20989;-71
2022/10/14 07:11:11;;;;;;;27.80;16.40;;;9.70;99.90;11.10;96962.00;;;;5074662;28;20300;-70
2022/10/14 07:14:00;;;;;;;21.67;14.80;;;9.80;99.90;11.30;96963.00;;;;5084253;28;20226;-70
2022/10/14 07:16:48;;;;;;;20.87;15.60;;;10.00;99.90;11.50;96969.00;;;;5081383;28;20287;-70
2022/10/14 07:19:37;;;;;;;23.93;17.57;;;10.10;99.90;11.60;96967.00;;;;5070598;28;20223;-69
2022/10/14 07:22:26;;;;;;;23.77;16.17;;;10.20;99.90;11.80;96967.00;;;;5080171;28;20236;-70
2022/10/14 07:25:14;;;;;;;21.93;15.60;;;10.30;99.90;12.00;96971.00;;;;5079745;28;20204;-70
2022/10/14 07:28:05;;;;;;;21.03;15.13;;;10.50;99.90;12.30;96970.00;;;;5076108;28;20219;-70
2022/10/14 07:30:59;;;;;;;22.30;15.50;;;10.70;99.90;12.20;96977.00;;;;5082748;28;20202;-71
2022/10/14 07:33:48;;;;;;;22.63;15.07;;;10.80;99.90;12.40;96979.00;;;;5083048;28;20200;-70
2022/10/14 07:36:37;;;;;;;26.47;15.50;;;10.90;99.90;12.70;96993.00;;;;5081739;28;20323;-70
2022/10/14 07:39:27;;;;;;;21.10;13.57;;;11.20;99.90;12.70;96989.00;;;;5065335;28;20227;-70
2022/10/14 07:42:16;;;;;;;23.40;13.50;;;11.30;99.90;12.80;96992.00;;;;5077592;28;20199;-70
2022/10/14 07:45:08;;;;;;;19.37;14.70;;;11.40;99.90;13.00;96996.00;;;;5075846;28;20203;-70
2022/10/14 07:47:56;;;;;;;18.60;13.57;;;11.50;99.90;13.00;96980.00;;;;5076548;28;20226;-70
2022/10/14 07:51:10;;;;;;;17.07;13.67;;;;;13.00;96991.00;;;;5081079;23;20674;-89
2022/10/14 07:55:00;;;;;;;22.57;13.97;;;11.70;99.90;13.20;96991.00;;;;5076561;28;20545;-89
2022/10/14 07:58:58;;;;;;;20.83;13.23;;;12.00;99.90;13.90;96998.00;;;;5042123;28;20236;-92
2022/10/14 08:03:07;;;;;;;16.00;13.70;;;12.30;99.90;14.40;97000.00;;;;5053997;28;20224;-90
2022/10/14 08:07:09;;;;;;;14.63;11.70;;;13.10;99.90;15.20;97000.00;;;;5051203;28;20193;-90
2022/10/14 08:10:21;;;;;;;21.13;10.83;;;12.90;99.90;15.50;97002.00;;;;5057205;28;20963;-91
2022/10/14 08:13:11;;;;;;;16.33;11.17;;;13.30;99.90;15.90;97007.00;;;;5052645;28;20204;-90
2022/10/14 08:16:03;;;;;;;13.80;11.23;;;13.60;99.90;16.10;97005.00;;;;5060082;28;20199;-90
2022/10/14 08:19:09;;;;;;;16.37;10.73;;;14.00;99.90;16.40;97011.00;;;;5049277;28;20226;-91
2022/10/14 08:22:11;;;;;;;15.90;10.83;;;14.20;99.90;16.70;97009.00;;;;5052215;28;20258;-89
2022/10/14 08:27:52;;;;;;;13.87;10.73;;;14.70;99.90;17.10;97012.00;;;;5081426;28;20220;-66
2022/10/14 08:30:40;;;;;;;12.97;10.93;;;14.90;99.90;17.40;96998.00;;;;5076641;28;20294;-66
2022/10/14 08:33:29;;;;;;;16.97;10.40;;;15.20;99.90;17.70;97010.00;;;;5077931;28;20208;-66
2022/10/14 08:36:19;;;;;;;14.67;8.37;;;15.40;99.90;18.00;97003.00;;;;5080959;28;20245;-67
2022/10/14 08:39:09;;;;;;;11.63;9.67;;;15.70;99.90;18.10;97007.00;;;;5077631;28;20280;-66
2022/10/14 08:42:30;;;;;;;13.93;10.27;;;15.90;99.90;18.90;97003.00;;;;5088212;28;20282;-65
2022/10/14 08:45:25;;;;;;;15.30;10.13;;;16.30;99.90;18.90;97016.00;;;;5079998;28;20196;-66
2022/10/14 08:48:19;;;;;;;14.53;9.60;;;16.60;99.90;19.00;97018.00;;;;5091881;28;20288;-66
2022/10/14 08:51:12;;;;;;;10.20;9.00;;;16.80;99.90;18.90;97021.00;;;;5084330;28;20249;-66
2022/10/14 08:54:09;;;;;;;16.00;9.63;;;16.90;99.90;18.90;97025.00;;;;5083970;28;20203;-66
2022/10/14 08:57:00;;;;;;;11.53;8.53;;;17.00;99.90;18.90;97025.00;;;;5087208;27;20196;-66
2022/10/14 08:59:49;;;;;;;12.00;8.10;;;17.10;99.90;18.90;97020.00;;;;5087412;27;20589;-66
2022/10/14 09:02:44;;;;;;;12.40;8.50;;;17.10;99.90;19.10;97030.00;;;;5087294;28;20195;-66
2022/10/14 09:05:33;;;;;;;11.70;8.20;;;17.10;99.90;18.80;97016.00;;;;5088345;28;20206;-66
2022/10/14 09:08:27;;;;;;;10.33;8.43;;;17.20;99.90;19.10;97025.00;;;;5087463;28;20752;-66
2022/10/14 09:11:20;;;;;;;15.37;8.70;;;17.20;99.90;19.30;97014.00;;;;5080573;28;20199;-65
2022/10/14 09:14:15;;;;;;;9.83;8.43;;;17.30;99.90;19.70;97033.00;;;;5081384;28;20196;-66
2022/10/14 09:17:11;;;;;;;8.50;7.50;;;17.50;99.90;19.70;97028.00;;;;5084416;28;20194;-66
2022/10/14 09:20:18;;;;;;;12.90;7.83;;;17.60;99.90;19.50;97020.00;;;;5078877;28;20227;-66
2022/10/14 09:23:16;;;;;;;10.90;8.50;;;17.70;99.90;19.70;97025.00;;;;5084067;28;20207;-66
2022/10/14 09:26:11;;;;;;;11.60;8.50;;;17.70;99.90;20.30;97017.00;;;;5079919;27;20276;-66
2022/10/14 09:29:02;;;;;;;9.53;7.67;;;17.90;99.90;20.30;97019.00;;;;5079802;28;20218;-66
2022/10/14 09:31:52;;;;;;;10.80;7.67;;;18.10;99.90;19.90;97025.00;;;;5085232;28;20211;-66
2022/10/14 09:34:49;;;;;;;10.97;8.20;;;18.10;99.90;20.30;97015.00;;;;5084640;28;20272;-66
2022/10/14 09:37:38;;;;;;;14.50;8.33;;;18.20;99.90;20.30;97031.00;;;;5081684;28;20257;-66
2022/10/14 09:40:32;;;;;;;11.43;8.43;;;18.30;99.90;20.40;97029.00;;;;5084121;28;20589;-66
2022/10/14 09:43:23;;;;;;;11.70;9.03;;;18.30;99.90;20.50;97023.00;;;;5082124;28;20708;-66
2022/10/14 09:46:13;;;;;;;14.00;10.13;;;18.40;99.90;20.80;97018.00;;;;5084520;28;20203;-65
2022/10/14 09:49:02;;;;;;;13.60;8.47;;;18.60;99.90;21.00;97017.00;;;;5087834;28;20253;-66
2022/10/14 09:51:51;;;;;;;12.60;9.63;;;18.80;99.90;21.40;97011.00;;;;5081356;28;20256;-67
2022/10/14 09:54:40;;;;;;;11.10;8.97;;;19.00;99.90;21.90;97016.00;;;;5073497;28;20189;-66
2022/10/14 09:57:29;;;;;;;12.60;9.27;;;19.30;99.90;21.90;97031.00;;;;5084411;28;20222;-66
2022/10/14 10:00:27;;;;;;;14.47;10.77;;;19.50;99.90;20.90;97034.00;;;;5084276;28;20572;-66
2022/10/14 10:03:31;;;;;;;16.93;10.20;;;19.40;99.90;20.60;97032.00;;;;5081476;28;20334;-66
2022/10/14 10:06:24;;;;;;;14.80;10.80;;;19.10;99.90;20.30;97030.00;;;;5076495;28;20682;-67
2022/10/14 10:09:19;;;;;;;13.17;11.83;;;18.90;99.90;20.30;97027.00;;;;5079879;28;20246;-66
2022/10/14 10:12:24;;;;;;;17.83;13.13;;;18.80;99.90;20.10;97026.00;;;;5072438;28;20705;-68
2022/10/14 10:15:20;;;;;;;16.77;13.83;;;18.60;99.90;20.10;97017.00;;;;5076413;28;20231;-64
2022/10/14 10:18:19;;;;;;;20.20;14.87;;;18.50;99.90;20.10;97018.00;;;;5079627;28;20199;-64
2022/10/14 10:21:19;;;;;;;19.57;13.80;;;18.40;99.90;20.30;97003.00;;;;5081548;28;20245;-63
2022/10/14 10:24:20;;;;;;;22.00;15.23;;;18.50;99.90;21.60;96989.00;;;;5079210;28;20204;-66
2022/10/14 10:27:20;;;;;;;25.27;17.17;;;18.90;99.90;21.00;97023.00;;;;5077156;28;20211;-68
2022/10/14 10:30:23;;;;;;;20.07;15.43;;;19.40;99.90;20.90;97017.00;;;;5079065;28;20238;-67
2022/10/14 10:33:27;;;;;;;25.03;17.37;;;19.30;99.90;20.60;97018.00;;;;5081818;28;20207;-66
2022/10/14 10:36:25;;;;;;;24.87;17.23;;;19.20;99.90;20.90;97009.00;;;;5090237;28;20187;-67
2022/10/14 10:39:23;;;;;;;23.80;17.40;;;19.10;99.90;20.80;97010.00;;;;5087913;28;20771;-64
2022/10/14 10:42:21;;;;;;;19.30;15.27;;;19.10;99.90;21.60;97004.00;;;;5086843;28;20211;-64
2022/10/14 10:45:17;;;;;;;21.80;17.27;;;19.30;99.90;21.70;96961.00;;;;5085132;28;20577;-64
2022/10/14 10:48:14;;;;;;;20.17;16.80;;;19.60;99.90;22.90;96974.00;;;;5081800;28;20195;-63
2022/10/14 10:51:09;;;;;;;23.50;17.03;;;20.10;99.90;22.50;96990.00;;;;5080175;28;20227;-64
2022/10/14 10:54:08;;;;;;;22.57;17.50;;;20.30;99.90;22.30;96947.00;;;;5079475;28;20191;-64
2022/10/14 10:57:03;;;;;;;22.30;17.37;;;20.50;99.90;23.30;96959.00;;;;5075037;28;20219;-64
2022/10/14 10:59:59;;;;;;;23.10;17.17;;;20.90;99.90;24.40;96952.00;;;;5075596;28;20730;-63
2022/10/14 11:03:07;;;;;;;19.77;15.20;;;21.50;99.90;25.10;96960.00;;;;5086194;28;20238;-64
2022/10/14 11:06:06;;;;;;;21.50;16.93;;;22.20;99.90;25.30;96949.00;;;;5078858;28;20195;-64
2022/10/14 11:12:22;;;;;;;23.33;16.93;;;23.20;99.90;24.20;96965.00;;;;5081113;28;20201;-65
2022/10/14 11:15:25;;;;;;;21.70;16.57;;;23.00;99.90;25.10;96930.00;;;;5081342;28;20204;-64
2022/10/14 11:18:24;;;;;;;19.50;16.90;;;23.00;99.90;25.90;96934.00;;;;5083004;28;20205;-64
2022/10/14 11:21:26;;;;;;;25.93;16.80;;;23.40;99.90;24.30;96924.00;;;;5077573;28;20237;-64
2022/10/14 11:24:27;;;;;;;20.73;15.80;;;23.50;99.20;25.50;96934.00;;;;5069355;28;20579;-65
2022/10/14 11:27:23;;;;;;;25.13;19.10;;;23.50;99.60;25.80;96927.00;;;;5079822;28;20205;-65
2022/10/14 11:30:17;;;;;;;23.10;17.83;;;23.70;99.60;26.90;96931.00;;;;5085826;28;20963;-65
2022/10/14 11:33:26;;;;;;;18.50;16.37;;;24.10;99.70;27.10;96918.00;;;;5083348;28;20200;-65
2022/10/14 11:36:26;;;;;;;18.77;16.20;;;24.60;98.10;26.80;96963.00;;;;5079412;28;20717;-65
2022/10/14 11:39:38;;;;;;;19.53;15.30;;;24.80;97.30;27.20;96952.00;;;;5081133;28;20218;-65
2022/10/14 11:42:38;;;;;;;22.23;17.13;;;24.90;96.00;26.30;96926.00;;;;5079407;28;20331;-64
2022/10/14 11:45:52;;;;;;;18.70;16.73;;;24.80;95.50;26.40;96915.00;;;;5076549;28;20263;-64
2022/10/14 11:48:50;;;;;;;20.23;16.23;;;24.80;94.30;27.10;96946.00;;;;5073105;28;20268;-64
2022/10/14 11:51:42;;;;;;;21.70;16.13;;;24.80;94.40;27.40;96912.00;;;;5088065;28;20252;-65
2022/10/14 11:54:38;;;;;;;18.17;15.67;;;25.00;94.00;27.20;96915.00;;;;5081473;28;20707;-66
2022/10/14 11:57:35;;;;;;;21.07;17.00;;;25.10;93.70;27.70;96913.00;;;;5077714;28;20245;-65
2022/10/14 12:00:45;;;;;;;17.37;15.13;;;25.30;93.10;27.20;96903.00;;;;5072877;28;20252;-66
2022/10/14 12:03:53;;;;;;;21.20;18.73;;;25.40;91.50;27.40;96905.00;;;;5077902;28;20287;-65
2022/10/14 12:06:48;;;;;;;19.67;16.20;;;25.50;89.60;28.10;96900.00;;;;5079334;28;20194;-65
2022/10/14 12:09:43;;;;;;;19.55;16.83;;;25.60;90.70;27.80;96904.00;;;;5074653;28;20272;-65
2022/10/14 12:12:35;;;;;;;22.45;16.15;;;25.70;89.30;27.20;96890.00;;;;5080287;28;20207;-67
2022/10/14 12:15:27;;;;;;;18.17;15.40;;;25.70;85.60;27.40;96897.00;;;;5079773;28;20195;-66
2022/10/14 12:18:15;;;;;;;19.00;16.30;;;25.50;87.80;26.90;96894.00;;;;5078707;28;20196;-66
2022/10/14 12:21:18;;;;;;;20.50;16.13;;;25.50;85.60;28.10;96900.00;;;;5078437;28;20225;-67
2022/10/14 12:24:13;;;;;;;16.90;15.10;;;25.50;87.00;28.80;96884.00;;;;5072746;27;20226;-65
2022/10/14 12:27:06;;;;;;;17.52;15.68;;;25.90;86.60;29.20;96891.00;;;;5078613;28;20219;-67
2022/10/14 12:29:56;;;;;;;18.67;16.67;;;26.40;85.40;29.40;96889.00;;;;5085981;28;20219;-66
2022/10/14 12:33:01;;;;;;;17.63;15.18;;;26.80;85.20;29.50;96887.00;;;;5088483;28;20259;-67
2022/10/14 12:35:58;;;;;;;18.33;16.30;;;27.20;83.20;30.00;96883.00;;;;5080413;28;20252;-66
2022/10/14 12:39:29;;;;;;;18.58;16.08;;;27.40;82.60;29.10;96875.00;;;;5083135;28;20196;-67
2022/10/14 12:42:21;;;;;;;17.45;15.70;;;27.40;78.70;29.10;96879.00;;;;5085087;28;20360;-67
2022/10/14 12:45:17;;;;;;;19.83;17.38;;;27.40;77.60;29.30;96895.00;;;;5085422;28;20252;-66
2022/10/14 12:48:14;;;;;;;22.25;16.67;;;27.30;77.60;27.00;96912.00;;;;5082560;28;20239;-68